sensor_id;sensor_type;location;lat;lon;timestamp;P1;durP1;ratioP1;P2;durP2;ratioP2
22768;SDS011;13001;51.968;5.918;2023-04-30T00:02:24;325.63;;;305.53;;
22768;SDS011;13001;51.968;5.918;2023-04-30T00:04:52;345.87;;;324.40;;
22768;SDS011;13001;51.968;5.918;2023-04-30T00:07:19;324.50;;;304.53;;
22768;SDS011;13001;51.968;5.918;2023-04-30T00:09:46;346.27;;;324.77;;
22768;SDS011;13001;51.968;5.918;2023-04-30T00:12:14;339.50;;;318.80;;
22768;SDS011;13001;51.968;5.918;2023-04-30T00:14:42;336.07;;;315.57;;
22768;SDS011;13001;51.968;5.918;2023-04-30T00:17:09;353.97;;;332.37;;
22768;SDS011;13001;51.968;5.918;2023-04-30T00:19:36;352.73;;;330.93;;
22768;SDS011;13001;51.968;5.918;2023-04-30T00:22:03;366.03;;;343.60;;
22768;SDS011;13001;51.968;5.918;2023-04-30T00:24:31;345.83;;;324.67;;
22768;SDS011;13001;51.968;5.918;2023-04-30T00:26:58;346.63;;;325.07;;
22768;SDS011;13001;51.968;5.918;2023-04-30T00:29:26;354.20;;;332.13;;
22768;SDS011;13001;51.968;5.918;2023-04-30T00:31:53;341.87;;;320.70;;
22768;SDS011;13001;51.968;5.918;2023-04-30T00:34:20;357.57;;;335.03;;
22768;SDS011;13001;51.968;5.918;2023-04-30T00:36:47;355.50;;;333.20;;
22768;SDS011;13001;51.968;5.918;2023-04-30T00:39:15;354.50;;;332.30;;
22768;SDS011;13001;51.968;5.918;2023-04-30T00:41:42;358.43;;;335.33;;
22768;SDS011;13001;51.968;5.918;2023-04-30T00:44:09;355.47;;;332.87;;
22768;SDS011;13001;51.968;5.918;2023-04-30T00:46:37;361.30;;;338.37;;
22768;SDS011;13001;51.968;5.918;2023-04-30T00:49:04;358.73;;;336.30;;
22768;SDS011;13001;51.968;5.918;2023-04-30T00:51:31;350.40;;;327.87;;
22768;SDS011;13001;51.968;5.918;2023-04-30T00:54:03;368.97;;;345.70;;
22768;SDS011;13001;51.968;5.918;2023-04-30T00:56:28;359.63;;;336.73;;
22768;SDS011;13001;51.968;5.918;2023-04-30T00:58:56;366.47;;;343.30;;
22768;SDS011;13001;51.968;5.918;2023-04-30T01:04:10;399.03;;;374.03;;
22768;SDS011;13001;51.968;5.918;2023-04-30T01:06:38;376.97;;;352.90;;
22768;SDS011;13001;51.968;5.918;2023-04-30T01:09:05;414.00;;;387.30;;
22768;SDS011;13001;51.968;5.918;2023-04-30T01:11:43;414.43;;;387.70;;
22768;SDS011;13001;51.968;5.918;2023-04-30T01:14:19;411.03;;;384.97;;
22768;SDS011;13001;51.968;5.918;2023-04-30T01:16:46;421.83;;;395.07;;
22768;SDS011;13001;51.968;5.918;2023-04-30T01:21:58;439.00;;;410.00;;
22768;SDS011;13001;51.968;5.918;2023-04-30T01:24:31;453.83;;;423.77;;
22768;SDS011;13001;51.968;5.918;2023-04-30T01:29:41;460.50;;;429.97;;
22768;SDS011;13001;51.968;5.918;2023-04-30T01:32:09;482.93;;;449.80;;
22768;SDS011;13001;51.968;5.918;2023-04-30T01:34:36;508.37;;;474.17;;
22768;SDS011;13001;51.968;5.918;2023-04-30T01:37:12;484.90;;;452.00;;
22768;SDS011;13001;51.968;5.918;2023-04-30T01:42:41;475.57;;;443.90;;
22768;SDS011;13001;51.968;5.918;2023-04-30T01:47:51;486.87;;;453.80;;
22768;SDS011;13001;51.968;5.918;2023-04-30T01:52:59;549.50;;;510.80;;
22768;SDS011;13001;51.968;5.918;2023-04-30T01:55:35;525.97;;;488.73;;
22768;SDS011;13001;51.968;5.918;2023-04-30T01:58:04;569.37;;;528.37;;
22768;SDS011;13001;51.968;5.918;2023-04-30T02:00:31;559.43;;;519.70;;
22768;SDS011;13001;51.968;5.918;2023-04-30T02:02:59;512.70;;;477.60;;
22768;SDS011;13001;51.968;5.918;2023-04-30T02:05:26;457.13;;;427.03;;
22768;SDS011;13001;51.968;5.918;2023-04-30T02:07:54;483.53;;;451.07;;
22768;SDS011;13001;51.968;5.918;2023-04-30T02:10:22;483.80;;;450.73;;
22768;SDS011;13001;51.968;5.918;2023-04-30T02:12:50;532.50;;;494.93;;
22768;SDS011;13001;51.968;5.918;2023-04-30T02:15:17;486.27;;;453.13;;
22768;SDS011;13001;51.968;5.918;2023-04-30T02:17:44;463.23;;;431.27;;
22768;SDS011;13001;51.968;5.918;2023-04-30T02:20:12;461.03;;;429.60;;
22768;SDS011;13001;51.968;5.918;2023-04-30T02:22:39;456.23;;;424.70;;
22768;SDS011;13001;51.968;5.918;2023-04-30T02:25:06;495.43;;;460.80;;
22768;SDS011;13001;51.968;5.918;2023-04-30T02:27:34;492.53;;;458.43;;
22768;SDS011;13001;51.968;5.918;2023-04-30T02:30:01;481.77;;;448.63;;
22768;SDS011;13001;51.968;5.918;2023-04-30T02:32:29;551.27;;;511.83;;
22768;SDS011;13001;51.968;5.918;2023-04-30T02:34:56;568.97;;;527.27;;
22768;SDS011;13001;51.968;5.918;2023-04-30T02:37:24;561.47;;;521.37;;
22768;SDS011;13001;51.968;5.918;2023-04-30T02:39:54;477.27;;;444.53;;
22768;SDS011;13001;51.968;5.918;2023-04-30T02:42:21;488.83;;;455.30;;
22768;SDS011;13001;51.968;5.918;2023-04-30T02:44:49;518.23;;;481.67;;
22768;SDS011;13001;51.968;5.918;2023-04-30T02:47:16;577.80;;;535.07;;
22768;SDS011;13001;51.968;5.918;2023-04-30T02:49:43;596.00;;;551.70;;
22768;SDS011;13001;51.968;5.918;2023-04-30T02:52:11;611.77;;;566.13;;
22768;SDS011;13001;51.968;5.918;2023-04-30T02:54:38;586.10;;;542.23;;
22768;SDS011;13001;51.968;5.918;2023-04-30T02:57:05;586.33;;;543.57;;
22768;SDS011;13001;51.968;5.918;2023-04-30T02:59:32;585.53;;;542.37;;
22768;SDS011;13001;51.968;5.918;2023-04-30T03:02:00;541.17;;;502.20;;
22768;SDS011;13001;51.968;5.918;2023-04-30T03:04:27;529.87;;;492.07;;
22768;SDS011;13001;51.968;5.918;2023-04-30T03:06:54;562.30;;;521.40;;
22768;SDS011;13001;51.968;5.918;2023-04-30T03:09:21;575.00;;;532.30;;
22768;SDS011;13001;51.968;5.918;2023-04-30T03:11:49;589.67;;;545.90;;
22768;SDS011;13001;51.968;5.918;2023-04-30T03:14:16;568.80;;;527.50;;
22768;SDS011;13001;51.968;5.918;2023-04-30T03:16:43;570.27;;;527.70;;
22768;SDS011;13001;51.968;5.918;2023-04-30T03:19:10;580.50;;;537.73;;
22768;SDS011;13001;51.968;5.918;2023-04-30T03:21:38;512.20;;;475.77;;
22768;SDS011;13001;51.968;5.918;2023-04-30T03:24:05;548.73;;;508.33;;
22768;SDS011;13001;51.968;5.918;2023-04-30T03:26:33;559.13;;;518.10;;
22768;SDS011;13001;51.968;5.918;2023-04-30T03:29:00;521.97;;;484.50;;
22768;SDS011;13001;51.968;5.918;2023-04-30T03:31:27;575.60;;;533.20;;
22768;SDS011;13001;51.968;5.918;2023-04-30T03:33:55;561.40;;;520.07;;
22768;SDS011;13001;51.968;5.918;2023-04-30T03:36:22;572.23;;;529.53;;
22768;SDS011;13001;51.968;5.918;2023-04-30T03:38:49;549.60;;;509.30;;
22768;SDS011;13001;51.968;5.918;2023-04-30T03:41:16;575.47;;;531.67;;
22768;SDS011;13001;51.968;5.918;2023-04-30T03:43:44;554.63;;;513.57;;
22768;SDS011;13001;51.968;5.918;2023-04-30T03:46:11;505.27;;;468.80;;
22768;SDS011;13001;51.968;5.918;2023-04-30T03:48:38;540.40;;;500.00;;
22768;SDS011;13001;51.968;5.918;2023-04-30T03:51:06;522.23;;;484.17;;
22768;SDS011;13001;51.968;5.918;2023-04-30T03:53:34;540.93;;;500.57;;
22768;SDS011;13001;51.968;5.918;2023-04-30T03:56:02;532.77;;;493.73;;
22768;SDS011;13001;51.968;5.918;2023-04-30T03:58:30;449.97;;;418.37;;
22768;SDS011;13001;51.968;5.918;2023-04-30T04:00:57;503.87;;;467.97;;
22768;SDS011;13001;51.968;5.918;2023-04-30T04:03:24;470.93;;;437.93;;
22768;SDS011;13001;51.968;5.918;2023-04-30T04:05:51;416.43;;;388.03;;
22768;SDS011;13001;51.968;5.918;2023-04-30T04:08:19;464.10;;;431.37;;
22768;SDS011;13001;51.968;5.918;2023-04-30T04:10:46;454.53;;;422.77;;
22768;SDS011;13001;51.968;5.918;2023-04-30T04:13:13;475.80;;;441.80;;
22768;SDS011;13001;51.968;5.918;2023-04-30T04:15:41;473.57;;;440.63;;
22768;SDS011;13001;51.968;5.918;2023-04-30T04:18:08;449.50;;;418.90;;
22768;SDS011;13001;51.968;5.918;2023-04-30T04:20:36;465.83;;;433.37;;
22768;SDS011;13001;51.968;5.918;2023-04-30T04:23:03;416.47;;;388.30;;
22768;SDS011;13001;51.968;5.918;2023-04-30T04:25:31;438.87;;;408.40;;
22768;SDS011;13001;51.968;5.918;2023-04-30T04:27:58;434.77;;;405.20;;
22768;SDS011;13001;51.968;5.918;2023-04-30T04:30:26;344.87;;;323.33;;
22768;SDS011;13001;51.968;5.918;2023-04-30T04:32:53;338.87;;;317.17;;
22768;SDS011;13001;51.968;5.918;2023-04-30T04:35:20;315.27;;;294.20;;
22768;SDS011;13001;51.968;5.918;2023-04-30T04:37:48;331.17;;;308.87;;
22768;SDS011;13001;51.968;5.918;2023-04-30T04:40:15;377.53;;;352.13;;
22768;SDS011;13001;51.968;5.918;2023-04-30T04:42:42;313.10;;;292.70;;
22768;SDS011;13001;51.968;5.918;2023-04-30T04:45:09;244.50;;;229.97;;
22768;SDS011;13001;51.968;5.918;2023-04-30T04:47:37;177.53;;;165.80;;
22768;SDS011;13001;51.968;5.918;2023-04-30T04:50:04;191.33;;;178.53;;
22768;SDS011;13001;51.968;5.918;2023-04-30T04:52:32;199.37;;;185.93;;
22768;SDS011;13001;51.968;5.918;2023-04-30T04:54:59;540.25;;;502.93;;
22768;SDS011;13001;51.968;5.918;2023-04-30T04:57:26;512.42;;;472.23;;
22768;SDS011;13001;51.968;5.918;2023-04-30T04:59:54;533.33;;;494.23;;
22768;SDS011;13001;51.968;5.918;2023-04-30T05:02:21;418.37;;;389.53;;
22768;SDS011;13001;51.968;5.918;2023-04-30T05:04:49;493.17;;;459.07;;
22768;SDS011;13001;51.968;5.918;2023-04-30T05:07:16;526.23;;;489.87;;
22768;SDS011;13001;51.968;5.918;2023-04-30T05:09:49;578.30;;;537.37;;
22768;SDS011;13001;51.968;5.918;2023-04-30T05:12:13;570.67;;;531.90;;
22768;SDS011;13001;51.968;5.918;2023-04-30T05:14:40;585.47;;;546.90;;
22768;SDS011;13001;51.968;5.918;2023-04-30T05:17:08;563.80;;;526.53;;
22768;SDS011;13001;51.968;5.918;2023-04-30T05:19:35;476.83;;;445.87;;
22768;SDS011;13001;51.968;5.918;2023-04-30T05:22:02;449.97;;;421.47;;
22768;SDS011;13001;51.968;5.918;2023-04-30T05:24:30;426.10;;;399.23;;
22768;SDS011;13001;51.968;5.918;2023-04-30T05:26:58;456.57;;;425.87;;
22768;SDS011;13001;51.968;5.918;2023-04-30T05:29:25;476.90;;;444.53;;
22768;SDS011;13001;51.968;5.918;2023-04-30T05:31:52;444.30;;;414.27;;
22768;SDS011;13001;51.968;5.918;2023-04-30T05:34:19;450.77;;;420.63;;
22768;SDS011;13001;51.968;5.918;2023-04-30T05:36:47;393.23;;;367.00;;
22768;SDS011;13001;51.968;5.918;2023-04-30T05:39:14;418.57;;;390.33;;
22768;SDS011;13001;51.968;5.918;2023-04-30T22:35:08;603.50;;;557.15;;
22768;SDS011;13001;51.968;5.918;2023-04-30T22:37:36;494.97;;;458.57;;
22768;SDS011;13001;51.968;5.918;2023-04-30T22:40:06;432.90;;;401.57;;
22768;SDS011;13001;51.968;5.918;2023-04-30T22:42:33;490.33;;;454.23;;
22768;SDS011;13001;51.968;5.918;2023-04-30T22:45:01;497.30;;;460.93;;
22768;SDS011;13001;51.968;5.918;2023-04-30T22:47:28;501.93;;;464.47;;
22768;SDS011;13001;51.968;5.918;2023-04-30T22:49:55;496.03;;;459.53;;
22768;SDS011;13001;51.968;5.918;2023-04-30T22:52:23;519.83;;;480.70;;
22768;SDS011;13001;51.968;5.918;2023-04-30T22:54:51;490.50;;;454.97;;
22768;SDS011;13001;51.968;5.918;2023-04-30T22:57:19;517.17;;;478.80;;
22768;SDS011;13001;51.968;5.918;2023-04-30T22:59:48;501.93;;;465.37;;
22768;SDS011;13001;51.968;5.918;2023-04-30T23:02:15;511.07;;;473.30;;
22768;SDS011;13001;51.968;5.918;2023-04-30T23:04:42;519.80;;;481.33;;
22768;SDS011;13001;51.968;5.918;2023-04-30T23:07:10;491.83;;;455.67;;
22768;SDS011;13001;51.968;5.918;2023-04-30T23:09:37;504.33;;;467.03;;
22768;SDS011;13001;51.968;5.918;2023-04-30T23:12:04;492.40;;;454.43;;
22768;SDS011;13001;51.968;5.918;2023-04-30T23:14:32;500.37;;;463.27;;
22768;SDS011;13001;51.968;5.918;2023-04-30T23:16:59;499.13;;;463.10;;
22768;SDS011;13001;51.968;5.918;2023-04-30T23:19:26;532.40;;;492.20;;
22768;SDS011;13001;51.968;5.918;2023-04-30T23:21:53;540.60;;;499.60;;
22768;SDS011;13001;51.968;5.918;2023-04-30T23:24:22;524.63;;;485.30;;
22768;SDS011;13001;51.968;5.918;2023-04-30T23:26:50;530.23;;;489.77;;
22768;SDS011;13001;51.968;5.918;2023-04-30T23:29:18;517.17;;;478.50;;
22768;SDS011;13001;51.968;5.918;2023-04-30T23:31:45;495.80;;;458.87;;
22768;SDS011;13001;51.968;5.918;2023-04-30T23:34:13;510.47;;;471.93;;
22768;SDS011;13001;51.968;5.918;2023-04-30T23:36:40;496.33;;;458.63;;
22768;SDS011;13001;51.968;5.918;2023-04-30T23:39:08;530.80;;;490.50;;
22768;SDS011;13001;51.968;5.918;2023-04-30T23:41:35;504.17;;;466.90;;
22768;SDS011;13001;51.968;5.918;2023-04-30T23:44:02;504.90;;;466.87;;
22768;SDS011;13001;51.968;5.918;2023-04-30T23:46:30;505.83;;;468.17;;
22768;SDS011;13001;51.968;5.918;2023-04-30T23:48:57;529.07;;;489.37;;
22768;SDS011;13001;51.968;5.918;2023-04-30T23:51:24;501.47;;;464.13;;
22768;SDS011;13001;51.968;5.918;2023-04-30T23:53:52;517.97;;;479.17;;
22768;SDS011;13001;51.968;5.918;2023-04-30T23:56:19;492.23;;;456.13;;
22768;SDS011;13001;51.968;5.918;2023-04-30T23:58:47;513.80;;;475.73;;
